Time;durP1;ratioP1;P1;durP2;ratioP2;P2;SDS_P1;SDS_P2;PMS_P1;PMS_P2;Temp;Humidity;BMP_temperature;BMP_pressure;BME280_temperature;BME280_humidity;BME280_pressure;Samples;Min_cycle;Max_cycle;Signal;HPM_P1;HPM_P2
2021/03/28 00:00:08;;;;;;;11.93;5.20;;;;;;;;;;5114179;28;20236;-66
2021/03/28 00:02:36;;;;;;;12.55;4.50;;;;;;;;;;5114527;28;20319;-67
2021/03/28 00:05:15;;;;;;;12.15;4.13;;;;;;;;;;5113703;28;20282;-66
2021/03/28 00:07:45;;;;;;;10.15;4.30;;;;;;;;;;5114077;28;20273;-66
2021/03/28 00:10:23;;;;;;;14.95;4.20;;;;;;;;;;5114577;28;20193;-66
2021/03/28 00:12:52;;;;;;;10.07;3.90;;;;;;;;;;5114343;28;20189;-66
2021/03/28 00:15:20;;;;;;;9.45;4.57;;;;;;;;;;5114211;28;20287;-66
2021/03/28 00:17:48;;;;;;;9.65;4.70;;;;;;;;;;5114027;28;20288;-66
2021/03/28 00:20:32;;;;;;;12.57;4.80;;;;;;;;;;5114368;28;20232;-66
2021/03/28 00:23:06;;;;;;;10.65;5.10;;;;;;;;;;5114300;28;20593;-67
2021/03/28 00:25:34;;;;;;;11.40;4.45;;;;;;;;;;5113753;28;20240;-66
2021/03/28 00:28:02;;;;;;;15.07;6.40;;;;;;;;;;5114335;28;20292;-66
2021/03/28 00:30:30;;;;;;;18.95;4.60;;;;;;;;;;5114091;28;20279;-67
2021/03/28 00:33:00;;;;;;;10.82;4.20;;;;;;;;;;5113981;28;20193;-67
2021/03/28 00:35:30;;;;;;;10.45;4.38;;;;;;;;;;5113980;28;20287;-67
2021/03/28 00:38:08;;;;;;;14.65;4.18;;;;;;;;;;5113909;28;20304;-66
2021/03/28 00:40:35;;;;;;;9.82;5.40;;;;;;;;;;5114280;28;20335;-67
2021/03/28 00:43:13;;;;;;;17.73;5.55;;;;;;;;;;5113626;28;20281;-66
2021/03/28 00:45:47;;;;;;;6.35;3.47;;;;;;;;;;5114524;28;20557;-66
2021/03/28 00:48:15;;;;;;;10.07;4.43;;;;;;;;;;5113992;28;20338;-67
2021/03/28 00:50:43;;;;;;;13.07;3.90;;;;;;;;;;5113835;28;20562;-66
2021/03/28 00:53:12;;;;;;;6.88;4.65;;;;;;;;;;5113483;28;20225;-66
2021/03/28 00:55:40;;;;;;;9.05;4.72;;;;;;;;;;5114339;28;20277;-67
2021/03/28 00:58:09;;;;;;;11.77;4.80;;;;;;;;;;5113627;28;20250;-67
2021/03/28 01:00:53;;;;;;;12.85;4.72;;;;;;;;;;5114351;28;20631;-67
2021/03/28 01:03:30;;;;;;;13.88;4.03;;;;;;;;;;5114212;28;20305;-67
2021/03/28 01:05:59;;;;;;;13.98;4.28;;;;;;;;;;5114145;28;20189;-67
2021/03/28 01:08:28;;;;;;;14.52;5.32;;;;;;;;;;5113970;28;20207;-67
2021/03/28 01:11:05;;;;;;;9.35;4.45;;;;;;;;;;5113410;28;20233;-67
2021/03/28 01:13:44;;;;;;;9.93;4.25;;;;;;;;;;5113777;28;20213;-68
2021/03/28 01:16:20;;;;;;;7.55;4.32;;;;;;;;;;5115999;28;20230;-68
2021/03/28 01:18:54;;;;;;;8.60;4.07;;;;;;;;;;5118437;28;20209;-69
2021/03/28 01:21:25;;;;;;;10.13;4.88;;;;;;;;;;5117693;28;20732;-67
2021/03/28 01:24:00;;;;;;;8.95;4.03;;;;;;;;;;5118202;28;20224;-67
2021/03/28 01:26:45;;;;;;;6.13;4.18;;;;;;;;;;5117130;28;20182;-67
2021/03/28 01:29:28;;;;;;;12.13;4.10;;;;;;;;;;5117167;28;20309;-67
2021/03/28 01:31:57;;;;;;;6.00;4.15;;;;;;;;;;5117853;28;20201;-66
2021/03/28 01:34:26;;;;;;;8.82;3.55;;;;;;;;;;5117430;28;20228;-67
2021/03/28 01:37:02;;;;;;;5.82;3.90;;;;;;;;;;5116945;28;20289;-68
2021/03/28 01:39:37;;;;;;;12.10;4.20;;;;;;;;;;5117452;28;20216;-67
2021/03/28 01:42:06;;;;;;;11.57;4.43;;;;;;;;;;5116985;28;20271;-67
2021/03/28 01:44:40;;;;;;;15.43;4.53;;;;;;;;;;5117765;28;20271;-68
2021/03/28 01:47:10;;;;;;;6.20;4.18;;;;;;;;;;5117591;28;20273;-67
2021/03/28 01:49:52;;;;;;;12.27;3.63;;;;;;;;;;5116798;28;20189;-67
2021/03/28 01:52:24;;;;;;;10.10;5.05;;;;;;;;;;5117802;28;20602;-66
2021/03/28 01:54:58;;;;;;;6.68;4.10;;;;;;;;;;5117476;28;20220;-67
2021/03/28 01:57:28;;;;;;;15.25;4.30;;;;;;;;;;5117539;28;20265;-68
2021/03/28 02:00:16;;;;;;;13.55;5.05;;;;;;;;;;5117283;28;20305;-68
2021/03/28 02:02:49;;;;;;;12.98;3.88;;;;;;;;;;5116566;28;20264;-67
2021/03/28 02:05:22;;;;;;;11.48;4.30;;;;;;;;;;5117014;28;20271;-66
2021/03/28 02:07:55;;;;;;;7.00;3.25;;;;;;;;;;5116343;28;20185;-68
2021/03/28 02:10:28;;;;;;;16.23;4.70;;;;;;;;;;5116872;28;20209;-66
2021/03/28 02:12:58;;;;;;;11.68;4.30;;;;;;;;;;5116619;28;20269;-67
2021/03/28 02:15:32;;;;;;;11.27;4.43;;;;;;;;;;5116185;28;20283;-66
2021/03/28 02:18:04;;;;;;;16.42;5.18;;;;;;;;;;5116251;28;20181;-66
2021/03/28 02:20:40;;;;;;;10.32;3.70;;;;;;;;;;5116547;28;20265;-67
2021/03/28 02:23:12;;;;;;;12.45;4.40;;;;;;;;;;5116657;28;20264;-66
2021/03/28 02:25:43;;;;;;;9.90;3.83;;;;;;;;;;5116629;28;20280;-66
2021/03/28 02:28:16;;;;;;;8.55;3.85;;;;;;;;;;5115045;28;20730;-66
2021/03/28 02:30:53;;;;;;;12.43;4.28;;;;;;;;;;5115916;28;20726;-66
2021/03/28 02:33:21;;;;;;;8.68;3.97;;;;;;;;;;5116181;28;20184;-67
2021/03/28 02:36:06;;;;;;;14.88;4.55;;;;;;;;;;5115988;28;20280;-66
2021/03/28 02:38:43;;;;;;;15.18;4.07;;;;;;;;;;5116147;28;20293;-67
2021/03/28 02:41:13;;;;;;;13.48;4.18;;;;;;;;;;5116637;28;20723;-66
2021/03/28 02:43:44;;;;;;;10.65;3.88;;;;;;;;;;5116043;28;20189;-66
2021/03/28 02:46:22;;;;;;;19.98;4.63;;;;;;;;;;5116883;28;20223;-66
2021/03/28 02:48:58;;;;;;;7.20;4.38;;;;;;;;;;5115549;28;20195;-67
2021/03/28 02:51:49;;;;;;;12.57;4.63;;;;;;;;;;5116122;28;20273;-67
2021/03/28 02:54:30;;;;;;;15.77;4.65;;;;;;;;;;5105916;27;20190;-68
2021/03/28 02:57:05;;;;;;;10.77;4.13;;;;;;;;;;5116240;28;20296;-67
2021/03/28 02:59:37;;;;;;;6.80;4.43;;;;;;;;;;5115318;28;20205;-67
2021/03/28 03:02:27;;;;;;;10.40;4.70;;;;;;;;;;5115560;28;20316;-66
2021/03/28 03:05:08;;;;;;;16.73;4.05;;;;;;;;;;5115439;28;20268;-67
2021/03/28 03:07:48;;;;;;;16.33;4.60;;;;;;;;;;5115729;28;20617;-67
2021/03/28 03:10:24;;;;;;;9.85;3.90;;;;;;;;;;5115168;28;20431;-66
2021/03/28 03:12:55;;;;;;;9.10;3.90;;;;;;;;;;5115416;28;20221;-67
2021/03/28 03:15:26;;;;;;;11.10;4.65;;;;;;;;;;5115677;28;20264;-67
2021/03/28 03:18:10;;;;;;;13.95;4.50;;;;;;;;;;5114934;28;20185;-66
2021/03/28 03:20:57;;;;;;;8.13;4.30;;;;;;;;;;5115345;28;20277;-66
2021/03/28 03:23:42;;;;;;;14.18;6.32;;;;;;;;;;5114922;28;20268;-65
2021/03/28 03:26:16;;;;;;;12.60;5.07;;;;;;;;;;5115043;28;20276;-66
2021/03/28 03:29:08;;;;;;;16.02;5.00;;;;;;;;;;5115619;28;20322;-67
2021/03/28 03:31:47;;;;;;;9.90;4.60;;;;;;;;;;5115955;28;20217;-67
2021/03/28 03:34:21;;;;;;;8.80;4.40;;;;;;;;;;5115244;28;20223;-67
2021/03/28 03:36:58;;;;;;;7.28;5.22;;;;;;;;;;5115410;28;20204;-66
2021/03/28 03:39:36;;;;;;;12.60;4.53;;;;;;;;;;5114291;28;20219;-66
2021/03/28 03:42:11;;;;;;;11.70;5.45;;;;;;;;;;5115652;28;20182;-66
2021/03/28 03:44:59;;;;;;;8.50;3.75;;;;;;;;;;5115224;28;20268;-66
2021/03/28 03:47:28;;;;;;;11.73;4.35;;;;;;;;;;5114739;28;20286;-66
2021/03/28 03:50:10;;;;;;;8.00;4.88;;;;;;;;;;5114327;28;20285;-66
2021/03/28 03:52:47;;;;;;;10.27;4.63;;;;;;;;;;5114705;28;20272;-66
2021/03/28 03:55:19;;;;;;;14.05;4.20;;;;;;;;;;5114318;28;20191;-66
2021/03/28 03:57:47;;;;;;;12.20;3.90;;;;;;;;;;5114635;28;20235;-67
2021/03/28 04:00:20;;;;;;;7.03;3.80;;;;;;;;;;5114087;28;20225;-66
2021/03/28 04:03:03;;;;;;;15.25;4.43;;;;;;;;;;5114544;28;20268;-67
2021/03/28 04:05:45;;;;;;;10.55;3.60;;;;;;;;;;5114741;28;20268;-67
2021/03/28 04:08:24;;;;;;;11.63;6.95;;;;;;;;;;5105928;28;20232;-67
2021/03/28 04:11:00;;;;;;;12.15;5.43;;;;;;;;;;5114710;28;20272;-67
2021/03/28 04:13:35;;;;;;;9.82;3.97;;;;;;;;;;5114027;28;20272;-66
2021/03/28 04:16:23;;;;;;;16.83;5.45;;;;;;;;;;5114349;28;20220;-66
2021/03/28 04:18:57;;;;;;;10.50;4.72;;;;;;;;;;5096345;28;20309;-67
2021/03/28 04:21:30;;;;;;;6.50;3.67;;;;;;;;;;5114163;28;20706;-66
2021/03/28 04:24:04;;;;;;;9.23;4.82;;;;;;;;;;5113879;28;20178;-68
2021/03/28 04:27:01;;;;;;;16.73;5.43;;;;;;;;;;5113883;28;20785;-67
2021/03/28 04:29:27;;;;;;;10.07;4.72;;;;;;;;;;5071414;28;20190;-66
2021/03/28 04:32:05;;;;;;;15.98;5.85;;;;;;;;;;5104283;28;20226;-66
2021/03/28 04:34:36;;;;;;;8.63;4.50;;;;;;;;;;5115022;28;20589;-65
2021/03/28 04:37:11;;;;;;;19.85;5.55;;;;;;;;;;5111415;28;20318;-65
2021/03/28 04:40:11;;;;;;;7.60;4.10;;;;;;;;;;5103022;28;20296;-65
2021/03/28 04:42:46;;;;;;;9.05;4.15;;;;;;;;;;5102525;28;20284;-66
2021/03/28 04:45:40;;;;;;;10.65;4.53;;;;;;;;;;5093791;28;20217;-66
2021/03/28 04:48:40;;;;;;;12.98;4.63;;;;;;;;;;5093312;28;20212;-66
2021/03/28 04:51:27;;;;;;;10.93;4.43;;;;;;;;;;5052921;28;20241;-65
2021/03/28 04:54:15;;;;;;;13.88;4.57;;;;;;;;;;5055367;28;20207;-66
2021/03/28 04:57:00;;;;;;;8.50;4.00;;;;;;;;;;5087316;28;20232;-66
2021/03/28 04:59:53;;;;;;;7.97;4.78;;;;;;;;;;5097227;28;20205;-66
2021/03/28 05:02:24;;;;;;;6.80;4.70;;;;;;;;;;5097711;28;20316;-66
2021/03/28 05:05:12;;;;;;;19.80;5.40;;;;;;;;;;5097844;28;20274;-65
2021/03/28 05:07:57;;;;;;;6.65;3.85;;;;;;;;;;5097742;28;20265;-65
2021/03/28 05:10:42;;;;;;;15.75;4.07;;;;;;;;;;5104804;28;20315;-66
2021/03/28 05:13:30;;;;;;;10.93;5.05;;;;;;;;;;5118411;28;20232;-65
2021/03/28 05:16:15;;;;;;;19.10;4.85;;;;;;;;;;5118281;28;20219;-66
2021/03/28 05:18:57;;;;;;;13.43;4.95;;;;;;;;;;5117813;28;20267;-65
2021/03/28 05:21:39;;;;;;;13.70;5.75;;;;;;;;;;5117324;28;20189;-65
2021/03/28 05:24:36;;;;;;;11.05;4.78;;;;;;;;;;5116201;28;20266;-65
2021/03/28 05:27:13;;;;;;;7.45;3.80;;;;;;;;;;5117553;28;20327;-64
2021/03/28 05:30:10;;;;;;;9.68;4.50;;;;;;;;;;5117120;28;20689;-65
2021/03/28 05:32:50;;;;;;;6.80;4.50;;;;;;;;;;5074884;28;20278;-66
2021/03/28 05:35:36;;;;;;;10.07;4.22;;;;;;;;;;5111308;28;20197;-65
2021/03/28 05:38:17;;;;;;;14.93;4.20;;;;;;;;;;5117639;28;20546;-67
2021/03/28 05:40:58;;;;;;;10.70;4.43;;;;;;;;;;5110679;28;20272;-65
2021/03/28 05:43:40;;;;;;;8.38;4.28;;;;;;;;;;5096966;28;20197;-65
2021/03/28 05:46:13;;;;;;;9.77;4.75;;;;;;;;;;5097150;28;20702;-65
2021/03/28 05:48:58;;;;;;;12.43;4.90;;;;;;;;;;5097093;28;20272;-65
2021/03/28 05:51:45;;;;;;;12.93;5.07;;;;;;;;;;5097289;28;20190;-66
2021/03/28 05:54:29;;;;;;;8.18;4.47;;;;;;;;;;5097208;28;20303;-65
2021/03/28 05:57:23;;;;;;;12.63;3.67;;;;;;;;;;5096677;28;20284;-65
2021/03/28 06:00:14;;;;;;;15.75;4.65;;;;;;;;;;5096937;28;20297;-66
2021/03/28 06:02:52;;;;;;;9.77;4.00;;;;;;;;;;5039288;28;20322;-65
2021/03/28 06:05:36;;;;;;;10.60;3.70;;;;;;;;;;5096021;28;20184;-65
2021/03/28 06:08:21;;;;;;;7.15;3.70;;;;;;;;;;5086233;28;20232;-66
2021/03/28 06:11:04;;;;;;;8.15;3.60;;;;;;;;;;5096473;28;20222;-65
2021/03/28 06:13:39;;;;;;;15.98;3.67;;;;;;;;;;5096519;28;20233;-65
2021/03/28 06:16:11;;;;;;;7.78;3.40;;;;;;;;;;5095863;28;20182;-66
2021/03/28 06:18:54;;;;;;;5.35;3.72;;;;;;;;;;5096599;28;20219;-65
2021/03/28 06:21:38;;;;;;;8.80;3.50;;;;;;;;;;5096562;28;20277;-66
2021/03/28 06:24:20;;;;;;;9.48;3.38;;;;;;;;;;5085947;28;20230;-65
2021/03/28 06:27:01;;;;;;;11.05;4.22;;;;;;;;;;5096010;28;20225;-65
2021/03/28 06:29:46;;;;;;;6.80;3.05;;;;;;;;;;5062853;28;20207;-65
2021/03/28 06:32:27;;;;;;;4.97;3.15;;;;;;;;;;5095465;28;20284;-65
2021/03/28 06:35:13;;;;;;;10.93;4.00;;;;;;;;;;5095924;28;20266;-66
2021/03/28 06:38:03;;;;;;;9.10;3.00;;;;;;;;;;5095511;28;20187;-67
2021/03/28 06:40:45;;;;;;;6.55;3.60;;;;;;;;;;5098661;28;20314;-66
2021/03/28 06:43:36;;;;;;;6.68;3.13;;;;;;;;;;5114174;28;20198;-64
2021/03/28 06:46:13;;;;;;;9.27;4.03;;;;;;;;;;5116034;28;20265;-66
2021/03/28 06:48:59;;;;;;;5.72;3.28;;;;;;;;;;5115599;28;20273;-66
2021/03/28 06:51:37;;;;;;;8.05;3.50;;;;;;;;;;5115848;28;20287;-66
2021/03/28 06:54:22;;;;;;;13.10;4.38;;;;;;;;;;5115718;28;20182;-66
2021/03/28 06:57:08;;;;;;;10.20;3.10;;;;;;;;;;5115824;28;20239;-65
2021/03/28 06:59:43;;;;;;;6.65;3.10;;;;;;;;;;5116621;28;20318;-65
2021/03/28 07:02:30;;;;;;;7.03;2.80;;;;;;;;;;5117331;28;20256;-66
2021/03/28 07:05:21;;;;;;;10.98;3.97;;;;;;;;;;5099749;28;20660;-65
2021/03/28 07:08:06;;;;;;;5.97;3.10;;;;;;;;;;5117497;28;20204;-70
2021/03/28 07:10:36;;;;;;;12.73;3.20;;;;;;;;;;5116221;28;20374;-65
2021/03/28 07:13:22;;;;;;;4.53;2.80;;;;;;;;;;5115258;28;20199;-65
2021/03/28 07:15:56;;;;;;;11.50;3.00;;;;;;;;;;5116611;28;20182;-66
2021/03/28 07:18:52;;;;;;;5.82;3.22;;;;;;;;;;5116070;28;20182;-65
2021/03/28 07:21:25;;;;;;;7.10;3.30;;;;;;;;;;5072916;28;20278;-66
2021/03/28 07:24:07;;;;;;;9.45;3.05;;;;;;;;;;5107467;28;20703;-64
2021/03/28 07:26:41;;;;;;;7.80;2.92;;;;;;;;;;5115156;28;20285;-64
2021/03/28 07:29:34;;;;;;;4.78;2.95;;;;;;;;;;5115194;28;20627;-65
2021/03/28 07:32:16;;;;;;;13.50;3.33;;;;;;;;;;5090338;28;20285;-65
2021/03/28 07:35:07;;;;;;;7.68;2.95;;;;;;;;;;5115018;28;20284;-64
2021/03/28 07:37:52;;;;;;;8.57;2.88;;;;;;;;;;5115247;28;20233;-65
2021/03/28 07:40:31;;;;;;;7.47;3.10;;;;;;;;;;5114848;28;20309;-65
2021/03/28 07:43:32;;;;;;;6.63;3.13;;;;;;;;;;5114841;28;20269;-64
2021/03/28 07:46:14;;;;;;;9.27;3.50;;;;;;;;;;5114644;28;20268;-66
2021/03/28 07:48:58;;;;;;;5.60;3.50;;;;;;;;;;5114845;28;20189;-65
2021/03/28 07:51:52;;;;;;;11.55;3.78;;;;;;;;;;5107607;28;20230;-65
2021/03/28 07:54:37;;;;;;;6.32;2.45;;;;;;;;;;5114971;28;20185;-65
2021/03/28 07:57:33;;;;;;;14.40;4.85;;;;;;;;;;5114722;28;20235;-65
2021/03/28 08:00:15;;;;;;;8.25;3.15;;;;;;;;;;5114159;28;20295;-66
2021/03/28 08:02:56;;;;;;;13.98;3.72;;;;;;;;;;5105831;28;20260;-65
2021/03/28 08:05:36;;;;;;;4.65;2.80;;;;;;;;;;5112620;28;20202;-65
2021/03/28 08:08:08;;;;;;;7.72;3.35;;;;;;;;;;5115281;28;20221;-65
2021/03/28 08:10:41;;;;;;;5.43;2.80;;;;;;;;;;5114027;28;20276;-66
2021/03/28 08:13:22;;;;;;;12.40;3.63;;;;;;;;;;5114541;28;20235;-65
2021/03/28 08:16:06;;;;;;;11.45;3.72;;;;;;;;;;5113897;28;20271;-65
2021/03/28 08:18:37;;;;;;;4.70;2.72;;;;;;;;;;5113897;28;20217;-65
2021/03/28 08:21:19;;;;;;;8.43;2.60;;;;;;;;;;5113849;28;20198;-65
2021/03/28 08:24:16;;;;;;;7.30;3.55;;;;;;;;;;5114264;28;20182;-64
2021/03/28 08:26:46;;;;;;;4.70;3.38;;;;;;;;;;5113444;28;20567;-65
2021/03/28 08:29:27;;;;;;;10.25;3.58;;;;;;;;;;5114401;28;20528;-65
2021/03/28 08:32:03;;;;;;;8.55;2.90;;;;;;;;;;5113802;28;20218;-65
2021/03/28 08:34:51;;;;;;;7.13;3.10;;;;;;;;;;5113988;28;20274;-64
2021/03/28 08:37:39;;;;;;;6.80;3.42;;;;;;;;;;5096416;28;20194;-65
2021/03/28 08:40:18;;;;;;;7.80;3.50;;;;;;;;;;5113688;28;20247;-65
2021/03/28 08:42:53;;;;;;;7.80;3.90;;;;;;;;;;5114012;28;20229;-65
2021/03/28 08:45:30;;;;;;;13.73;3.05;;;;;;;;;;5114075;28;20604;-65
2021/03/28 08:48:16;;;;;;;4.97;2.63;;;;;;;;;;5113357;28;20250;-65
2021/03/28 08:50:46;;;;;;;7.45;3.53;;;;;;;;;;5113593;28;20205;-67
2021/03/28 08:53:18;;;;;;;7.20;2.92;;;;;;;;;;5113424;28;20270;-65
2021/03/28 08:56:04;;;;;;;6.03;3.42;;;;;;;;;;5113719;28;20336;-65
2021/03/28 08:58:34;;;;;;;11.77;3.83;;;;;;;;;;5114040;28;20195;-65
2021/03/28 09:01:04;;;;;;;16.23;3.45;;;;;;;;;;5113684;28;20226;-66
2021/03/28 09:03:56;;;;;;;7.85;3.95;;;;;;;;;;5114390;28;20228;-66
2021/03/28 09:06:31;;;;;;;7.25;3.88;;;;;;;;;;5104425;28;20198;-65
2021/03/28 09:09:01;;;;;;;7.35;3.17;;;;;;;;;;5113499;28;20218;-66
2021/03/28 09:11:50;;;;;;;14.52;4.75;;;;;;;;;;5114108;28;20209;-66
2021/03/28 09:14:22;;;;;;;8.98;3.25;;;;;;;;;;5113294;28;20218;-65
2021/03/28 09:16:53;;;;;;;5.95;3.00;;;;;;;;;;5113917;28;20704;-67
2021/03/28 09:19:41;;;;;;;10.60;3.42;;;;;;;;;;5107516;28;20250;-66
2021/03/28 09:22:13;;;;;;;4.57;2.38;;;;;;;;;;5098429;28;20325;-65
2021/03/28 09:24:47;;;;;;;5.15;2.90;;;;;;;;;;5092929;28;20645;-66
2021/03/28 09:27:27;;;;;;;7.28;3.45;;;;;;;;;;5093963;28;20247;-65
2021/03/28 09:30:02;;;;;;;9.23;4.07;;;;;;;;;;5092831;28;20275;-66
2021/03/28 09:32:50;;;;;;;4.70;3.50;;;;;;;;;;5093923;28;20275;-66
2021/03/28 09:35:23;;;;;;;7.38;3.30;;;;;;;;;;5092844;28;20427;-65
2021/03/28 09:37:53;;;;;;;5.93;3.55;;;;;;;;;;5095991;28;20196;-66
2021/03/28 09:40:26;;;;;;;7.67;3.00;;;;;;;;;;5096496;28;20307;-66
2021/03/28 09:43:14;;;;;;;7.53;3.90;;;;;;;;;;5097446;28;20466;-67
2021/03/28 09:45:56;;;;;;;6.97;2.90;;;;;;;;;;5096925;28;20208;-68
2021/03/28 09:48:36;;;;;;;4.60;3.20;;;;;;;;;;5098044;28;20634;-67
2021/03/28 09:51:14;;;;;;;7.78;3.95;;;;;;;;;;5117345;28;20208;-66
2021/03/28 09:54:00;;;;;;;10.03;3.20;;;;;;;;;;5117032;28;20534;-64
2021/03/28 09:56:46;;;;;;;5.90;2.70;;;;;;;;;;5117365;28;21138;-66
2021/03/28 09:59:23;;;;;;;9.45;3.90;;;;;;;;;;5116451;28;20461;-66
2021/03/28 10:01:55;;;;;;;10.17;3.63;;;;;;;;;;5116515;28;20220;-66
2021/03/28 10:04:35;;;;;;;5.80;3.20;;;;;;;;;;5116748;28;20507;-66
2021/03/28 10:07:02;;;;;;;9.20;3.58;;;;;;;;;;5116785;28;20505;-66
2021/03/28 10:09:36;;;;;;;9.70;3.57;;;;;;;;;;5116212;28;20228;-66
2021/03/28 10:12:09;;;;;;;8.50;2.80;;;;;;;;;;5116722;28;20724;-66
2021/03/28 10:14:51;;;;;;;12.00;3.10;;;;;;;;;;5116404;28;20426;-67
2021/03/28 10:17:37;;;;;;;6.60;3.13;;;;;;;;;;5116402;28;20514;-67
2021/03/28 10:20:13;;;;;;;4.90;2.67;;;;;;;;;;5116487;28;20666;-67
2021/03/28 10:22:45;;;;;;;8.00;2.77;;;;;;;;;;5114425;28;20580;-67
2021/03/28 10:25:36;;;;;;;4.27;2.87;;;;;;;;;;5116498;28;20757;-68
2021/03/28 10:28:20;;;;;;;5.17;2.87;;;;;;;;;;5115517;28;20478;-68
2021/03/28 10:30:51;;;;;;;7.82;3.20;;;;;;;;;;5115314;27;20424;-65
2021/03/28 10:33:27;;;;;;;15.37;4.77;;;;;;;;;;5114563;27;20221;-67
2021/03/28 10:36:02;;;;;;;7.90;3.83;;;;;;;;;;5115028;28;20510;-67
2021/03/28 10:38:35;;;;;;;7.65;4.20;;;;;;;;;;5116225;28;20463;-67
2021/03/28 10:41:07;;;;;;;4.83;4.00;;;;;;;;;;5115629;28;20642;-66
2021/03/28 10:43:48;;;;;;;6.50;3.80;;;;;;;;;;5115574;28;20530;-67
2021/03/28 10:46:29;;;;;;;6.78;3.63;;;;;;;;;;5115711;28;20268;-67
2021/03/28 10:49:10;;;;;;;6.23;4.53;;;;;;;;;;5079955;28;20230;-66
2021/03/28 10:52:07;;;;;;;8.80;3.77;;;;;;;;;;5115300;28;20510;-66
2021/03/28 10:54:52;;;;;;;9.53;4.33;;;;;;;;;;5115075;27;20776;-68
2021/03/28 10:57:46;;;;;;;7.10;4.20;;;;;;;;;;5083575;28;20477;-66
2021/03/28 11:00:27;;;;;;;6.67;3.37;;;;;;;;;;5115145;28;20462;-67
2021/03/28 11:03:06;;;;;;;5.27;2.77;;;;;;;;;;5115627;28;20895;-66
2021/03/28 11:05:57;;;;;;;7.63;2.73;;;;;;;;;;5115794;28;20423;-66
2021/03/28 11:08:33;;;;;;;6.77;3.33;;;;;;;;;;5115699;28;20445;-68
2021/03/28 11:11:29;;;;;;;5.13;2.73;;;;;;;;;;5115919;28;20453;-67
2021/03/28 11:14:04;;;;;;;5.30;2.57;;;;;;;;;;5115196;28;20451;-67
2021/03/28 11:16:37;;;;;;;11.20;3.63;;;;;;;;;;5115198;28;20462;-66
2021/03/28 11:19:22;;;;;;;7.60;2.53;;;;;;;;;;5115845;28;20461;-68
2021/03/28 11:22:03;;;;;;;2.33;1.83;;;;;;;;;;5114984;28;20535;-68
2021/03/28 11:24:36;;;;;;;5.20;2.20;;;;;;;;;;5114854;28;20426;-69
2021/03/28 11:27:21;;;;;;;7.10;2.70;;;;;;;;;;5114629;28;20454;-69
2021/03/28 11:30:01;;;;;;;7.77;3.87;;;;;;;;;;5114446;28;20450;-69
2021/03/28 11:32:37;;;;;;;3.40;2.07;;;;;;;;;;5114474;28;20521;-67
2021/03/28 11:35:13;;;;;;;4.97;2.30;;;;;;;;;;5114448;28;20526;-67
2021/03/28 11:37:44;;;;;;;3.50;2.00;;;;;;;;;;5114621;28;20480;-69
2021/03/28 11:40:19;;;;;;;7.90;2.10;;;;;;;;;;5114405;28;20560;-68
2021/03/28 11:42:48;;;;;;;7.73;2.20;;;;;;;;;;5114716;28;20795;-66
2021/03/28 11:45:35;;;;;;;4.27;2.27;;;;;;;;;;5114358;27;20447;-66
2021/03/28 11:48:03;;;;;;;5.20;2.00;;;;;;;;;;5114009;28;20510;-67
2021/03/28 11:50:33;;;;;;;11.00;2.83;;;;;;;;;;5114520;28;20535;-66
2021/03/28 11:53:03;;;;;;;4.93;2.03;;;;;;;;;;5113920;27;20924;-65
2021/03/28 11:55:35;;;;;;;4.50;2.00;;;;;;;;;;5114724;28;20424;-67
2021/03/28 11:58:21;;;;;;;1.97;1.60;;;;;;;;;;5114542;28;20558;-64
2021/03/28 12:00:49;;;;;;;7.03;2.03;;;;;;;;;;5092811;28;20562;-68
2021/03/28 12:03:31;;;;;;;4.63;1.90;;;;;;;;;;5093668;28;21011;-67
2021/03/28 12:05:59;;;;;;;7.43;2.33;;;;;;;;;;5092359;28;20511;-66
2021/03/28 12:08:28;;;;;;;3.37;2.17;;;;;;;;;;5093559;28;20478;-64
2021/03/28 12:10:55;;;;;;;5.10;1.90;;;;;;;;;;5094070;28;20522;-65
2021/03/28 12:13:29;;;;;;;8.17;2.63;;;;;;;;;;5093318;28;20474;-67
2021/03/28 12:15:59;;;;;;;6.80;2.40;;;;;;;;;;5093815;28;20522;-65
2021/03/28 12:18:41;;;;;;;6.73;3.40;;;;;;;;;;5093866;28;20431;-66
2021/03/28 12:21:26;;;;;;;4.03;2.20;;;;;;;;;;5085086;28;20513;-66
2021/03/28 12:23:58;;;;;;;5.20;2.53;;;;;;;;;;5093275;28;20475;-67
2021/03/28 12:26:27;;;;;;;7.20;2.03;;;;;;;;;;5092819;28;20419;-66
2021/03/28 12:28:56;;;;;;;7.17;2.93;;;;;;;;;;5098769;28;20430;-66
2021/03/28 12:31:35;;;;;;;8.47;3.33;;;;;;;;;;5111786;28;20447;-67
2021/03/28 12:34:15;;;;;;;3.90;2.33;;;;;;;;;;5113752;28;20474;-67
2021/03/28 12:36:56;;;;;;;3.90;2.63;;;;;;;;;;5113165;28;20504;-67
2021/03/28 12:39:24;;;;;;;8.53;3.17;;;;;;;;;;5113983;28;20521;-65
2021/03/28 12:42:10;;;;;;;3.40;1.90;;;;;;;;;;5113809;28;20474;-69
2021/03/28 12:44:37;;;;;;;6.80;2.67;;;;;;;;;;5113258;28;20507;-66
2021/03/28 12:47:15;;;;;;;6.10;2.20;;;;;;;;;;5114087;28;20823;-66
2021/03/28 12:49:53;;;;;;;4.00;2.73;;;;;;;;;;5113335;28;20459;-66
2021/03/28 12:52:47;;;;;;;7.40;3.00;;;;;;;;;;5113556;28;20533;-69
2021/03/28 12:55:32;;;;;;;7.73;2.73;;;;;;;;;;5113627;28;20473;-66
2021/03/28 12:58:12;;;;;;;5.60;2.57;;;;;;;;;;5113913;28;20503;-66
2021/03/28 13:00:45;;;;;;;5.93;2.57;;;;;;;;;;5111328;28;20508;-67
2021/03/28 13:03:14;;;;;;;5.63;2.43;;;;;;;;;;5112635;28;20822;-65
2021/03/28 13:05:54;;;;;;;5.00;2.63;;;;;;;;;;5113102;28;20503;-67
2021/03/28 13:08:20;;;;;;;3.53;3.00;;;;;;;;;;5114126;28;20434;-66
2021/03/28 13:10:47;;;;;;;8.53;3.33;;;;;;;;;;5113199;28;20442;-66
2021/03/28 13:13:22;;;;;;;2.23;1.90;;;;;;;;;;5116489;28;21066;-66
2021/03/28 13:15:50;;;;;;;6.37;2.37;;;;;;;;;;5117411;28;20422;-66
2021/03/28 13:18:19;;;;;;;4.80;2.23;;;;;;;;;;5117482;28;20434;-66
2021/03/28 13:20:48;;;;;;;7.33;2.90;;;;;;;;;;5116872;28;20565;-64
2021/03/28 13:23:21;;;;;;;8.17;3.20;;;;;;;;;;5117240;28;20871;-65
2021/03/28 13:25:48;;;;;;;6.00;2.40;;;;;;;;;;5116993;28;20572;-66
2021/03/28 13:28:23;;;;;;;3.47;2.03;;;;;;;;;;5117424;28;20556;-65
2021/03/28 13:30:51;;;;;;;5.80;2.63;;;;;;;;;;5115297;28;20437;-65
2021/03/28 13:33:32;;;;;;;5.10;2.40;;;;;;;;;;5117211;27;20529;-65
2021/03/28 13:35:59;;;;;;;4.57;2.40;;;;;;;;;;5116573;28;20525;-65
2021/03/28 13:38:30;;;;;;;7.80;2.13;;;;;;;;;;5117066;28;20446;-66
2021/03/28 13:40:57;;;;;;;4.30;2.33;;;;;;;;;;5117027;28;20458;-67
2021/03/28 13:43:26;;;;;;;3.60;1.87;;;;;;;;;;5116729;28;20521;-65
2021/03/28 13:45:54;;;;;;;5.20;1.70;;;;;;;;;;5116493;28;20448;-66
2021/03/28 13:48:27;;;;;;;5.57;2.13;;;;;;;;;;5116990;28;20470;-64
2021/03/28 13:50:57;;;;;;;2.40;2.20;;;;;;;;;;5116255;27;20923;-65
2021/03/28 13:53:44;;;;;;;4.07;2.43;;;;;;;;;;5116727;28;20496;-65
2021/03/28 13:56:25;;;;;;;9.10;3.67;;;;;;;;;;5116494;28;20430;-65
2021/03/28 13:59:12;;;;;;;3.57;2.40;;;;;;;;;;5116686;28;20469;-65
2021/03/28 14:01:47;;;;;;;7.10;3.40;;;;;;;;;;5114620;28;20545;-63
2021/03/28 14:04:19;;;;;;;5.50;2.40;;;;;;;;;;5116112;28;20556;-64
2021/03/28 14:06:47;;;;;;;5.10;2.40;;;;;;;;;;5116137;28;20532;-65
2021/03/28 14:09:17;;;;;;;4.10;2.73;;;;;;;;;;5116244;28;20525;-65
2021/03/28 14:11:51;;;;;;;11.27;4.80;;;;;;;;;;5116274;28;20970;-65
2021/03/28 14:14:19;;;;;;;7.30;3.53;;;;;;;;;;5116188;28;20496;-65
2021/03/28 14:16:47;;;;;;;4.70;2.33;;;;;;;;;;5116167;28;20435;-66
2021/03/28 14:19:20;;;;;;;7.50;2.47;;;;;;;;;;5116337;28;20478;-66
2021/03/28 14:21:48;;;;;;;3.20;2.17;;;;;;;;;;5116296;28;20455;-65
2021/03/28 14:24:26;;;;;;;5.50;2.27;;;;;;;;;;5114459;28;20442;-64
2021/03/28 14:26:53;;;;;;;6.93;2.70;;;;;;;;;;5115292;28;20441;-66
2021/03/28 14:29:26;;;;;;;5.43;2.37;;;;;;;;;;5116039;28;20447;-66
2021/03/28 14:31:57;;;;;;;5.37;2.50;;;;;;;;;;5113757;28;20439;-66
2021/03/28 14:34:38;;;;;;;4.03;2.10;;;;;;;;;;5115438;28;20967;-65
2021/03/28 14:37:25;;;;;;;5.57;2.40;;;;;;;;;;5114837;28;20462;-66
2021/03/28 14:40:12;;;;;;;7.10;2.90;;;;;;;;;;5114721;28;20469;-64
2021/03/28 14:42:46;;;;;;;4.60;3.30;;;;;;;;;;5115478;28;20445;-65
2021/03/28 14:45:16;;;;;;;8.00;2.77;;;;;;;;;;5115616;28;20426;-66
2021/03/28 14:47:58;;;;;;;7.93;2.67;;;;;;;;;;5115300;28;20438;-65
2021/03/28 14:50:28;;;;;;;4.73;2.73;;;;;;;;;;5113525;28;20455;-64
2021/03/28 14:52:58;;;;;;;13.98;2.63;;;;;;;;;;5115578;28;20823;-65
2021/03/28 14:55:31;;;;;;;8.40;3.07;;;;;;;;;;5115646;28;20235;-66
2021/03/28 14:58:08;;;;;;;9.73;2.77;;;;;;;;;;5115463;28;20439;-65
2021/03/28 15:00:36;;;;;;;6.50;3.20;;;;;;;;;;5115286;27;20466;-65
2021/03/28 15:03:20;;;;;;;6.57;3.63;;;;;;;;;;5114936;28;20556;-66
2021/03/28 15:06:11;;;;;;;5.47;2.10;;;;;;;;;;5114733;28;20971;-67
2021/03/28 15:08:43;;;;;;;6.33;2.97;;;;;;;;;;5100159;28;20454;-63
2021/03/28 15:11:19;;;;;;;6.87;3.70;;;;;;;;;;5115225;28;20474;-65
2021/03/28 15:13:51;;;;;;;9.53;5.50;;;;;;;;;;5115488;28;20470;-65
2021/03/28 15:16:22;;;;;;;5.60;2.83;;;;;;;;;;5113268;28;20510;-65
2021/03/28 15:18:56;;;;;;;6.30;3.43;;;;;;;;;;5115016;28;20515;-66
2021/03/28 15:21:26;;;;;;;13.10;2.90;;;;;;;;;;5114804;28;20427;-67
2021/03/28 15:24:04;;;;;;;3.27;2.93;;;;;;;;;;5114601;28;21007;-64
2021/03/28 15:26:35;;;;;;;5.23;2.37;;;;;;;;;;5114120;28;20810;-64
2021/03/28 15:29:05;;;;;;;7.93;2.90;;;;;;;;;;5113755;28;20928;-65
2021/03/28 15:31:38;;;;;;;5.57;2.53;;;;;;;;;;5114663;28;20446;-64
2021/03/28 15:34:08;;;;;;;6.13;3.00;;;;;;;;;;5114232;28;20952;-65
2021/03/28 15:36:45;;;;;;;4.63;2.87;;;;;;;;;;5114098;28;20460;-65
2021/03/28 15:39:28;;;;;;;8.60;3.63;;;;;;;;;;5114414;28;20427;-65